sensor_id;sensor_type;location;lat;lon;timestamp;temperature;humidity
46440;DHT22;32138;50.966;6.968;2023-04-21T00:00:33;10.50;99.90
46440;DHT22;32138;50.966;6.968;2023-04-21T00:01:34;10.50;99.90
46440;DHT22;32138;50.966;6.968;2023-04-21T00:02:35;10.50;99.90
46440;DHT22;32138;50.966;6.968;2023-04-21T00:03:38;10.50;99.90
46440;DHT22;32138;50.966;6.968;2023-04-21T00:04:41;10.50;99.90
46440;DHT22;32138;50.966;6.968;2023-04-21T00:05:45;10.50;99.90
46440;DHT22;32138;50.966;6.968;2023-04-21T00:06:46;10.40;99.90
46440;DHT22;32138;50.966;6.968;2023-04-21T00:07:46;10.30;99.90
46440;DHT22;32138;50.966;6.968;2023-04-21T00:08:50;10.30;99.90
46440;DHT22;32138;50.966;6.968;2023-04-21T00:09:51;10.30;99.90
46440;DHT22;32138;50.966;6.968;2023-04-21T00:10:51;10.30;99.90
46440;DHT22;32138;50.966;6.968;2023-04-21T00:11:52;10.40;99.90
46440;DHT22;32138;50.966;6.968;2023-04-21T00:12:53;10.50;99.90
46440;DHT22;32138;50.966;6.968;2023-04-21T00:13:54;10.60;99.90
46440;DHT22;32138;50.966;6.968;2023-04-21T00:14:55;10.50;99.90
46440;DHT22;32138;50.966;6.968;2023-04-21T00:15:56;10.40;99.90
46440;DHT22;32138;50.966;6.968;2023-04-21T00:16:57;10.30;99.90
46440;DHT22;32138;50.966;6.968;2023-04-21T00:17:59;10.30;99.90
46440;DHT22;32138;50.966;6.968;2023-04-21T00:19:00;10.20;99.90
46440;DHT22;32138;50.966;6.968;2023-04-21T00:20:01;10.20;99.90
46440;DHT22;32138;50.966;6.968;2023-04-21T00:21:04;10.20;99.90
46440;DHT22;32138;50.966;6.968;2023-04-21T00:22:05;10.30;99.90
46440;DHT22;32138;50.966;6.968;2023-04-21T00:23:11;10.40;99.90
46440;DHT22;32138;50.966;6.968;2023-04-21T00:24:12;10.40;99.90
46440;DHT22;32138;50.966;6.968;2023-04-21T00:25:12;10.40;99.90
46440;DHT22;32138;50.966;6.968;2023-04-21T00:26:14;10.40;99.90
46440;DHT22;32138;50.966;6.968;2023-04-21T00:27:15;10.40;99.90
46440;DHT22;32138;50.966;6.968;2023-04-21T00:28:15;10.30;99.90
46440;DHT22;32138;50.966;6.968;2023-04-21T00:29:16;10.50;99.90
46440;DHT22;32138;50.966;6.968;2023-04-21T00:30:17;10.50;99.90
46440;DHT22;32138;50.966;6.968;2023-04-21T00:31:18;10.50;99.90
46440;DHT22;32138;50.966;6.968;2023-04-21T00:32:18;10.50;99.90
46440;DHT22;32138;50.966;6.968;2023-04-21T00:33:19;10.40;99.90
46440;DHT22;32138;50.966;6.968;2023-04-21T00:34:20;10.30;99.90
46440;DHT22;32138;50.966;6.968;2023-04-21T00:35:21;10.30;99.90
46440;DHT22;32138;50.966;6.968;2023-04-21T00:36:22;10.40;99.90
46440;DHT22;32138;50.966;6.968;2023-04-21T00:37:24;10.50;99.90
46440;DHT22;32138;50.966;6.968;2023-04-21T00:38:24;10.50;99.90
46440;DHT22;32138;50.966;6.968;2023-04-21T00:39:25;10.40;99.90
46440;DHT22;32138;50.966;6.968;2023-04-21T00:40:26;10.40;99.90
46440;DHT22;32138;50.966;6.968;2023-04-21T00:41:27;10.40;99.90
46440;DHT22;32138;50.966;6.968;2023-04-21T00:42:28;10.40;99.90
46440;DHT22;32138;50.966;6.968;2023-04-21T00:43:29;10.40;99.90
46440;DHT22;32138;50.966;6.968;2023-04-21T00:44:30;10.50;99.90
46440;DHT22;32138;50.966;6.968;2023-04-21T00:45:31;10.40;99.90
46440;DHT22;32138;50.966;6.968;2023-04-21T00:46:32;10.40;99.90
46440;DHT22;32138;50.966;6.968;2023-04-21T00:47:33;10.40;99.90
46440;DHT22;32138;50.966;6.968;2023-04-21T00:48:34;10.50;99.90
46440;DHT22;32138;50.966;6.968;2023-04-21T00:49:35;10.50;99.90
46440;DHT22;32138;50.966;6.968;2023-04-21T00:50:36;10.40;99.90
46440;DHT22;32138;50.966;6.968;2023-04-21T00:51:37;10.40;99.90
46440;DHT22;32138;50.966;6.968;2023-04-21T00:52:41;10.50;99.90
46440;DHT22;32138;50.966;6.968;2023-04-21T00:53:43;10.40;99.90
46440;DHT22;32138;50.966;6.968;2023-04-21T00:54:44;10.30;99.90
46440;DHT22;32138;50.966;6.968;2023-04-21T00:55:46;10.30;99.90
46440;DHT22;32138;50.966;6.968;2023-04-21T00:56:46;10.20;99.90
46440;DHT22;32138;50.966;6.968;2023-04-21T00:57:48;10.20;99.90
46440;DHT22;32138;50.966;6.968;2023-04-21T00:58:51;10.30;99.90
46440;DHT22;32138;50.966;6.968;2023-04-21T00:59:53;10.40;99.90
46440;DHT22;32138;50.966;6.968;2023-04-21T01:00:54;10.50;99.90
46440;DHT22;32138;50.966;6.968;2023-04-21T01:01:55;10.50;99.90
46440;DHT22;32138;50.966;6.968;2023-04-21T01:02:56;10.50;99.90
46440;DHT22;32138;50.966;6.968;2023-04-21T01:03:59;10.60;99.90
46440;DHT22;32138;50.966;6.968;2023-04-21T01:05:00;10.40;99.90
46440;DHT22;32138;50.966;6.968;2023-04-21T01:06:02;10.40;99.90
46440;DHT22;32138;50.966;6.968;2023-04-21T01:07:04;10.40;99.90
46440;DHT22;32138;50.966;6.968;2023-04-21T01:08:06;10.50;99.90
46440;DHT22;32138;50.966;6.968;2023-04-21T01:09:07;10.50;99.90
46440;DHT22;32138;50.966;6.968;2023-04-21T01:10:08;10.40;99.90
46440;DHT22;32138;50.966;6.968;2023-04-21T01:11:10;10.50;99.90
46440;DHT22;32138;50.966;6.968;2023-04-21T01:12:11;10.60;99.90
46440;DHT22;32138;50.966;6.968;2023-04-21T01:13:12;10.60;99.90
46440;DHT22;32138;50.966;6.968;2023-04-21T01:14:13;10.50;99.90
46440;DHT22;32138;50.966;6.968;2023-04-21T01:15:17;10.50;99.90
46440;DHT22;32138;50.966;6.968;2023-04-21T01:16:18;10.50;99.90
46440;DHT22;32138;50.966;6.968;2023-04-21T01:17:19;10.40;99.90
46440;DHT22;32138;50.966;6.968;2023-04-21T01:18:19;10.50;99.90
46440;DHT22;32138;50.966;6.968;2023-04-21T01:19:21;10.50;99.90
46440;DHT22;32138;50.966;6.968;2023-04-21T01:20:22;10.50;99.90
46440;DHT22;32138;50.966;6.968;2023-04-21T01:21:23;10.50;99.90
46440;DHT22;32138;50.966;6.968;2023-04-21T01:22:26;10.60;99.90
46440;DHT22;32138;50.966;6.968;2023-04-21T01:23:28;10.60;99.90
46440;DHT22;32138;50.966;6.968;2023-04-21T01:24:44;10.60;99.90
46440;DHT22;32138;50.966;6.968;2023-04-21T01:25:46;10.60;99.90
46440;DHT22;32138;50.966;6.968;2023-04-21T01:26:47;10.50;99.90
46440;DHT22;32138;50.966;6.968;2023-04-21T01:27:48;10.40;99.90
46440;DHT22;32138;50.966;6.968;2023-04-21T01:28:49;10.50;99.90
46440;DHT22;32138;50.966;6.968;2023-04-21T01:29:51;10.50;99.90
46440;DHT22;32138;50.966;6.968;2023-04-21T01:30:52;10.50;99.90
46440;DHT22;32138;50.966;6.968;2023-04-21T01:31:53;10.60;99.90
46440;DHT22;32138;50.966;6.968;2023-04-21T01:32:53;10.60;99.90
46440;DHT22;32138;50.966;6.968;2023-04-21T01:33:54;10.60;99.90
46440;DHT22;32138;50.966;6.968;2023-04-21T01:34:56;10.60;99.90
46440;DHT22;32138;50.966;6.968;2023-04-21T01:35:58;10.60;99.90
46440;DHT22;32138;50.966;6.968;2023-04-21T01:37:00;10.50;99.90
46440;DHT22;32138;50.966;6.968;2023-04-21T01:38:01;10.40;99.90
46440;DHT22;32138;50.966;6.968;2023-04-21T01:39:02;10.40;99.90
46440;DHT22;32138;50.966;6.968;2023-04-21T01:40:05;10.30;99.90
46440;DHT22;32138;50.966;6.968;2023-04-21T01:41:08;10.30;99.90
46440;DHT22;32138;50.966;6.968;2023-04-21T01:42:10;10.40;99.90
46440;DHT22;32138;50.966;6.968;2023-04-21T01:43:12;10.40;99.90
46440;DHT22;32138;50.966;6.968;2023-04-21T01:44:13;10.40;99.90
46440;DHT22;32138;50.966;6.968;2023-04-21T01:45:14;10.40;99.90
46440;DHT22;32138;50.966;6.968;2023-04-21T01:46:18;10.40;99.90
46440;DHT22;32138;50.966;6.968;2023-04-21T01:47:20;10.40;99.90
46440;DHT22;32138;50.966;6.968;2023-04-21T01:48:21;10.30;99.90
46440;DHT22;32138;50.966;6.968;2023-04-21T01:49:22;10.20;99.90
46440;DHT22;32138;50.966;6.968;2023-04-21T01:50:22;10.20;99.90
46440;DHT22;32138;50.966;6.968;2023-04-21T01:51:23;10.30;99.90
46440;DHT22;32138;50.966;6.968;2023-04-21T01:52:25;10.30;99.90
46440;DHT22;32138;50.966;6.968;2023-04-21T01:53:25;10.20;99.90
46440;DHT22;32138;50.966;6.968;2023-04-21T01:54:26;10.20;99.90
46440;DHT22;32138;50.966;6.968;2023-04-21T01:55:27;10.20;99.90
46440;DHT22;32138;50.966;6.968;2023-04-21T01:56:28;10.30;99.90
46440;DHT22;32138;50.966;6.968;2023-04-21T01:57:29;10.30;99.90
46440;DHT22;32138;50.966;6.968;2023-04-21T01:58:30;10.30;99.90
46440;DHT22;32138;50.966;6.968;2023-04-21T01:59:30;10.20;99.90
46440;DHT22;32138;50.966;6.968;2023-04-21T02:00:31;10.30;99.90
46440;DHT22;32138;50.966;6.968;2023-04-21T02:01:32;10.40;99.90
46440;DHT22;32138;50.966;6.968;2023-04-21T02:02:33;10.50;99.90
46440;DHT22;32138;50.966;6.968;2023-04-21T02:03:34;10.50;99.90
46440;DHT22;32138;50.966;6.968;2023-04-21T02:04:35;10.50;99.90
46440;DHT22;32138;50.966;6.968;2023-04-21T02:05:35;10.30;99.90
46440;DHT22;32138;50.966;6.968;2023-04-21T02:06:36;10.20;99.90
46440;DHT22;32138;50.966;6.968;2023-04-21T02:07:37;10.30;99.90
46440;DHT22;32138;50.966;6.968;2023-04-21T02:08:37;10.30;99.90
46440;DHT22;32138;50.966;6.968;2023-04-21T02:09:38;10.20;99.90
46440;DHT22;32138;50.966;6.968;2023-04-21T02:10:39;10.30;99.90
46440;DHT22;32138;50.966;6.968;2023-04-21T02:11:40;10.20;99.90
46440;DHT22;32138;50.966;6.968;2023-04-21T02:12:41;10.20;99.90
46440;DHT22;32138;50.966;6.968;2023-04-21T02:13:42;10.30;99.90
46440;DHT22;32138;50.966;6.968;2023-04-21T02:14:43;10.30;99.90
46440;DHT22;32138;50.966;6.968;2023-04-21T02:15:45;10.20;99.90
46440;DHT22;32138;50.966;6.968;2023-04-21T02:16:46;10.10;99.90
46440;DHT22;32138;50.966;6.968;2023-04-21T02:17:46;10.10;99.90
46440;DHT22;32138;50.966;6.968;2023-04-21T02:18:47;10.20;99.90
46440;DHT22;32138;50.966;6.968;2023-04-21T02:19:48;10.10;99.90
46440;DHT22;32138;50.966;6.968;2023-04-21T02:20:49;10.10;99.90
46440;DHT22;32138;50.966;6.968;2023-04-21T02:21:50;10.30;99.90
46440;DHT22;32138;50.966;6.968;2023-04-21T02:22:50;10.30;99.90
46440;DHT22;32138;50.966;6.968;2023-04-21T02:23:51;10.30;99.90
46440;DHT22;32138;50.966;6.968;2023-04-21T02:24:52;10.30;99.90
46440;DHT22;32138;50.966;6.968;2023-04-21T02:25:53;10.30;99.90
46440;DHT22;32138;50.966;6.968;2023-04-21T02:26:53;10.30;99.90
46440;DHT22;32138;50.966;6.968;2023-04-21T02:27:54;10.30;99.90
46440;DHT22;32138;50.966;6.968;2023-04-21T02:28:55;10.20;99.90
46440;DHT22;32138;50.966;6.968;2023-04-21T02:29:56;10.20;99.90
46440;DHT22;32138;50.966;6.968;2023-04-21T02:30:56;10.30;99.90
46440;DHT22;32138;50.966;6.968;2023-04-21T02:31:57;10.30;99.90
46440;DHT22;32138;50.966;6.968;2023-04-21T02:32:58;10.30;99.90
46440;DHT22;32138;50.966;6.968;2023-04-21T02:33:58;10.30;99.90
46440;DHT22;32138;50.966;6.968;2023-04-21T02:34:59;10.20;99.90
46440;DHT22;32138;50.966;6.968;2023-04-21T02:36:00;10.20;99.90
46440;DHT22;32138;50.966;6.968;2023-04-21T02:37:01;10.20;99.90
46440;DHT22;32138;50.966;6.968;2023-04-21T02:38:01;10.30;99.90
46440;DHT22;32138;50.966;6.968;2023-04-21T02:39:06;10.20;99.90
46440;DHT22;32138;50.966;6.968;2023-04-21T02:40:07;10.30;99.90
46440;DHT22;32138;50.966;6.968;2023-04-21T02:41:09;10.30;99.90
46440;DHT22;32138;50.966;6.968;2023-04-21T02:42:09;10.20;99.90
46440;DHT22;32138;50.966;6.968;2023-04-21T02:43:12;10.20;99.90
46440;DHT22;32138;50.966;6.968;2023-04-21T02:44:13;10.10;99.90
46440;DHT22;32138;50.966;6.968;2023-04-21T02:45:14;10.00;99.90
46440;DHT22;32138;50.966;6.968;2023-04-21T02:46:14;10.00;99.90
46440;DHT22;32138;50.966;6.968;2023-04-21T02:47:15;10.00;99.90
46440;DHT22;32138;50.966;6.968;2023-04-21T02:48:16;10.10;99.90
46440;DHT22;32138;50.966;6.968;2023-04-21T02:49:22;10.10;99.90
46440;DHT22;32138;50.966;6.968;2023-04-21T02:50:22;10.00;99.90
46440;DHT22;32138;50.966;6.968;2023-04-21T02:51:23;10.00;99.90
46440;DHT22;32138;50.966;6.968;2023-04-21T02:52:25;10.00;99.90
46440;DHT22;32138;50.966;6.968;2023-04-21T02:53:26;10.00;99.90
46440;DHT22;32138;50.966;6.968;2023-04-21T02:54:26;9.80;99.90
46440;DHT22;32138;50.966;6.968;2023-04-21T02:55:27;9.80;99.90
46440;DHT22;32138;50.966;6.968;2023-04-21T02:56:28;9.90;99.90
46440;DHT22;32138;50.966;6.968;2023-04-21T02:57:29;10.00;99.90
46440;DHT22;32138;50.966;6.968;2023-04-21T02:58:30;9.90;99.90
46440;DHT22;32138;50.966;6.968;2023-04-21T02:59:30;9.80;99.90
46440;DHT22;32138;50.966;6.968;2023-04-21T03:00:31;9.90;99.90
46440;DHT22;32138;50.966;6.968;2023-04-21T03:01:32;9.90;99.90
46440;DHT22;32138;50.966;6.968;2023-04-21T03:02:32;9.90;99.90
46440;DHT22;32138;50.966;6.968;2023-04-21T03:03:33;9.80;99.90
46440;DHT22;32138;50.966;6.968;2023-04-21T03:04:34;9.80;99.90
46440;DHT22;32138;50.966;6.968;2023-04-21T03:05:35;9.90;99.90
46440;DHT22;32138;50.966;6.968;2023-04-21T03:06:36;9.90;99.90
46440;DHT22;32138;50.966;6.968;2023-04-21T03:07:37;9.90;99.90
46440;DHT22;32138;50.966;6.968;2023-04-21T03:08:38;9.90;99.90
46440;DHT22;32138;50.966;6.968;2023-04-21T03:09:39;9.90;99.90
46440;DHT22;32138;50.966;6.968;2023-04-21T03:10:40;9.90;99.90
46440;DHT22;32138;50.966;6.968;2023-04-21T03:11:41;9.90;99.90
46440;DHT22;32138;50.966;6.968;2023-04-21T03:12:42;9.80;99.90
46440;DHT22;32138;50.966;6.968;2023-04-21T03:13:42;9.80;99.90
46440;DHT22;32138;50.966;6.968;2023-04-21T03:14:43;9.90;99.90
46440;DHT22;32138;50.966;6.968;2023-04-21T03:15:44;10.00;99.90
46440;DHT22;32138;50.966;6.968;2023-04-21T03:16:44;9.90;99.90
46440;DHT22;32138;50.966;6.968;2023-04-21T03:17:46;9.80;99.90
46440;DHT22;32138;50.966;6.968;2023-04-21T03:18:47;9.50;99.90
46440;DHT22;32138;50.966;6.968;2023-04-21T03:19:48;9.50;99.90
46440;DHT22;32138;50.966;6.968;2023-04-21T03:20:48;9.50;99.90
46440;DHT22;32138;50.966;6.968;2023-04-21T03:21:49;9.60;99.90
46440;DHT22;32138;50.966;6.968;2023-04-21T03:22:52;9.60;99.90
46440;DHT22;32138;50.966;6.968;2023-04-21T03:23:53;9.70;99.90
46440;DHT22;32138;50.966;6.968;2023-04-21T03:24:54;9.70;99.90
46440;DHT22;32138;50.966;6.968;2023-04-21T03:25:55;9.70;99.90
46440;DHT22;32138;50.966;6.968;2023-04-21T03:26:55;9.70;99.90
46440;DHT22;32138;50.966;6.968;2023-04-21T03:27:56;9.70;99.90
46440;DHT22;32138;50.966;6.968;2023-04-21T03:28:57;9.70;99.90
46440;DHT22;32138;50.966;6.968;2023-04-21T03:29:57;9.60;99.90
46440;DHT22;32138;50.966;6.968;2023-04-21T03:30:58;9.70;99.90
46440;DHT22;32138;50.966;6.968;2023-04-21T03:31:59;9.70;99.90
46440;DHT22;32138;50.966;6.968;2023-04-21T03:33:00;9.60;99.90
46440;DHT22;32138;50.966;6.968;2023-04-21T03:34:01;9.60;99.90
46440;DHT22;32138;50.966;6.968;2023-04-21T03:35:01;9.60;99.90
46440;DHT22;32138;50.966;6.968;2023-04-21T03:36:02;9.60;99.90
46440;DHT22;32138;50.966;6.968;2023-04-21T03:37:03;9.70;99.90
46440;DHT22;32138;50.966;6.968;2023-04-21T03:38:04;9.70;99.90
46440;DHT22;32138;50.966;6.968;2023-04-21T03:39:04;9.80;99.90
46440;DHT22;32138;50.966;6.968;2023-04-21T03:40:06;9.70;99.90
46440;DHT22;32138;50.966;6.968;2023-04-21T03:41:10;9.70;99.90
46440;DHT22;32138;50.966;6.968;2023-04-21T03:42:11;9.70;99.90
46440;DHT22;32138;50.966;6.968;2023-04-21T03:43:11;9.80;99.90
46440;DHT22;32138;50.966;6.968;2023-04-21T03:44:12;9.80;99.90
46440;DHT22;32138;50.966;6.968;2023-04-21T03:45:13;9.80;99.90
46440;DHT22;32138;50.966;6.968;2023-04-21T03:46:20;9.80;99.90
46440;DHT22;32138;50.966;6.968;2023-04-21T03:47:21;9.80;99.90
46440;DHT22;32138;50.966;6.968;2023-04-21T03:48:22;9.70;99.90
46440;DHT22;32138;50.966;6.968;2023-04-21T03:49:23;9.60;99.90
46440;DHT22;32138;50.966;6.968;2023-04-21T03:50:24;9.70;99.90
46440;DHT22;32138;50.966;6.968;2023-04-21T03:51:24;9.60;99.90
46440;DHT22;32138;50.966;6.968;2023-04-21T03:52:26;9.70;99.90
46440;DHT22;32138;50.966;6.968;2023-04-21T03:53:27;9.80;99.90
46440;DHT22;32138;50.966;6.968;2023-04-21T03:54:28;9.80;99.90
46440;DHT22;32138;50.966;6.968;2023-04-21T03:55:28;9.80;99.90
46440;DHT22;32138;50.966;6.968;2023-04-21T03:56:29;9.80;99.90
46440;DHT22;32138;50.966;6.968;2023-04-21T03:57:30;9.70;99.90
46440;DHT22;32138;50.966;6.968;2023-04-21T03:58:31;9.70;99.90
46440;DHT22;32138;50.966;6.968;2023-04-21T03:59:31;9.60;99.90
46440;DHT22;32138;50.966;6.968;2023-04-21T04:00:32;9.60;99.90
46440;DHT22;32138;50.966;6.968;2023-04-21T04:01:33;9.60;99.90
46440;DHT22;32138;50.966;6.968;2023-04-21T04:02:35;9.70;99.90
46440;DHT22;32138;50.966;6.968;2023-04-21T04:03:36;9.60;99.90
46440;DHT22;32138;50.966;6.968;2023-04-21T04:04:37;9.60;99.90
46440;DHT22;32138;50.966;6.968;2023-04-21T04:05:37;9.60;99.90
46440;DHT22;32138;50.966;6.968;2023-04-21T04:06:38;9.70;99.90
46440;DHT22;32138;50.966;6.968;2023-04-21T04:07:40;9.70;99.90
46440;DHT22;32138;50.966;6.968;2023-04-21T04:08:40;9.70;99.90
46440;DHT22;32138;50.966;6.968;2023-04-21T04:09:41;9.60;99.90
46440;DHT22;32138;50.966;6.968;2023-04-21T04:10:43;9.60;99.90
46440;DHT22;32138;50.966;6.968;2023-04-21T04:11:44;9.60;99.90
46440;DHT22;32138;50.966;6.968;2023-04-21T04:12:44;9.50;99.90
46440;DHT22;32138;50.966;6.968;2023-04-21T04:13:45;9.50;99.90
46440;DHT22;32138;50.966;6.968;2023-04-21T04:14:46;9.40;99.90
46440;DHT22;32138;50.966;6.968;2023-04-21T04:15:47;9.50;99.90
46440;DHT22;32138;50.966;6.968;2023-04-21T04:16:47;9.50;99.90
46440;DHT22;32138;50.966;6.968;2023-04-21T04:17:48;9.40;99.90
46440;DHT22;32138;50.966;6.968;2023-04-21T04:18:49;9.50;99.90
46440;DHT22;32138;50.966;6.968;2023-04-21T04:19:50;9.50;99.90
46440;DHT22;32138;50.966;6.968;2023-04-21T04:20:51;9.30;99.90
46440;DHT22;32138;50.966;6.968;2023-04-21T04:21:52;9.30;99.90
46440;DHT22;32138;50.966;6.968;2023-04-21T04:22:52;9.30;99.90
46440;DHT22;32138;50.966;6.968;2023-04-21T04:23:53;9.30;99.90
46440;DHT22;32138;50.966;6.968;2023-04-21T04:24:54;9.40;99.90
46440;DHT22;32138;50.966;6.968;2023-04-21T04:25:56;9.40;99.90
46440;DHT22;32138;50.966;6.968;2023-04-21T04:26:57;9.30;99.90
46440;DHT22;32138;50.966;6.968;2023-04-21T04:27:59;9.40;99.90
46440;DHT22;32138;50.966;6.968;2023-04-21T04:29:00;9.40;99.90
46440;DHT22;32138;50.966;6.968;2023-04-21T04:30:01;9.40;99.90
46440;DHT22;32138;50.966;6.968;2023-04-21T04:31:02;9.50;99.90
46440;DHT22;32138;50.966;6.968;2023-04-21T04:32:04;9.50;99.90
46440;DHT22;32138;50.966;6.968;2023-04-21T04:33:06;9.50;99.90
46440;DHT22;32138;50.966;6.968;2023-04-21T04:34:06;9.40;99.90
46440;DHT22;32138;50.966;6.968;2023-04-21T04:35:09;9.40;99.90
46440;DHT22;32138;50.966;6.968;2023-04-21T04:36:10;9.40;99.90
46440;DHT22;32138;50.966;6.968;2023-04-21T04:37:13;9.30;99.90
46440;DHT22;32138;50.966;6.968;2023-04-21T04:38:14;9.40;99.90
46440;DHT22;32138;50.966;6.968;2023-04-21T04:39:15;9.50;99.90
46440;DHT22;32138;50.966;6.968;2023-04-21T04:40:16;9.40;99.90
46440;DHT22;32138;50.966;6.968;2023-04-21T04:41:17;9.30;99.90
46440;DHT22;32138;50.966;6.968;2023-04-21T04:42:19;9.30;99.90
46440;DHT22;32138;50.966;6.968;2023-04-21T04:43:20;9.30;99.90
46440;DHT22;32138;50.966;6.968;2023-04-21T04:44:21;9.30;99.90
46440;DHT22;32138;50.966;6.968;2023-04-21T04:45:23;9.30;99.90
46440;DHT22;32138;50.966;6.968;2023-04-21T04:46:25;9.20;99.90
46440;DHT22;32138;50.966;6.968;2023-04-21T04:47:27;9.30;99.90
46440;DHT22;32138;50.966;6.968;2023-04-21T04:48:29;9.30;99.90
46440;DHT22;32138;50.966;6.968;2023-04-21T04:49:29;9.30;99.90
46440;DHT22;32138;50.966;6.968;2023-04-21T04:50:30;9.40;99.90
46440;DHT22;32138;50.966;6.968;2023-04-21T04:51:31;9.50;99.90
46440;DHT22;32138;50.966;6.968;2023-04-21T04:52:32;9.50;99.90
46440;DHT22;32138;50.966;6.968;2023-04-21T04:53:32;9.50;99.90
46440;DHT22;32138;50.966;6.968;2023-04-21T04:54:33;9.40;99.90
46440;DHT22;32138;50.966;6.968;2023-04-21T04:55:34;9.40;99.90
46440;DHT22;32138;50.966;6.968;2023-04-21T04:56:35;9.50;99.90
46440;DHT22;32138;50.966;6.968;2023-04-21T04:57:36;9.60;99.90
46440;DHT22;32138;50.966;6.968;2023-04-21T04:58:36;9.60;99.90
46440;DHT22;32138;50.966;6.968;2023-04-21T04:59:37;9.60;99.90
46440;DHT22;32138;50.966;6.968;2023-04-21T05:00:38;9.50;99.90
46440;DHT22;32138;50.966;6.968;2023-04-21T05:01:39;9.50;99.90
46440;DHT22;32138;50.966;6.968;2023-04-21T05:02:41;9.50;99.90
46440;DHT22;32138;50.966;6.968;2023-04-21T05:03:42;9.40;99.90
46440;DHT22;32138;50.966;6.968;2023-04-21T05:04:43;9.40;99.90
46440;DHT22;32138;50.966;6.968;2023-04-21T05:05:44;9.40;99.90
46440;DHT22;32138;50.966;6.968;2023-04-21T05:06:45;9.40;99.90
46440;DHT22;32138;50.966;6.968;2023-04-21T05:07:46;9.40;99.90
46440;DHT22;32138;50.966;6.968;2023-04-21T05:08:50;9.50;99.90
46440;DHT22;32138;50.966;6.968;2023-04-21T05:09:59;9.50;99.90
46440;DHT22;32138;50.966;6.968;2023-04-21T05:11:09;9.40;99.90
46440;DHT22;32138;50.966;6.968;2023-04-21T05:12:10;9.40;99.90
46440;DHT22;32138;50.966;6.968;2023-04-21T05:13:10;9.50;99.90
46440;DHT22;32138;50.966;6.968;2023-04-21T05:14:11;9.40;99.90
46440;DHT22;32138;50.966;6.968;2023-04-21T05:15:12;9.30;99.90
46440;DHT22;32138;50.966;6.968;2023-04-21T05:16:13;9.40;99.90
46440;DHT22;32138;50.966;6.968;2023-04-21T05:17:13;9.50;99.90
46440;DHT22;32138;50.966;6.968;2023-04-21T05:18:14;9.40;99.90
46440;DHT22;32138;50.966;6.968;2023-04-21T05:19:15;9.50;99.90
46440;DHT22;32138;50.966;6.968;2023-04-21T05:20:15;9.60;99.90
46440;DHT22;32138;50.966;6.968;2023-04-21T05:21:25;9.60;99.90
46440;DHT22;32138;50.966;6.968;2023-04-21T05:22:26;9.60;99.90
46440;DHT22;32138;50.966;6.968;2023-04-21T05:23:27;9.50;99.90
46440;DHT22;32138;50.966;6.968;2023-04-21T05:24:28;9.40;99.90
46440;DHT22;32138;50.966;6.968;2023-04-21T05:25:29;9.40;99.90
46440;DHT22;32138;50.966;6.968;2023-04-21T05:26:30;9.40;99.90
46440;DHT22;32138;50.966;6.968;2023-04-21T05:27:31;9.40;99.90
46440;DHT22;32138;50.966;6.968;2023-04-21T05:28:33;9.40;99.90
46440;DHT22;32138;50.966;6.968;2023-04-21T05:29:35;9.30;99.90
46440;DHT22;32138;50.966;6.968;2023-04-21T05:30:35;9.40;99.90
46440;DHT22;32138;50.966;6.968;2023-04-21T05:31:36;9.40;99.90
46440;DHT22;32138;50.966;6.968;2023-04-21T05:32:38;9.50;99.90
46440;DHT22;32138;50.966;6.968;2023-04-21T05:33:39;9.50;99.90
46440;DHT22;32138;50.966;6.968;2023-04-21T05:34:39;9.60;99.90
46440;DHT22;32138;50.966;6.968;2023-04-21T05:35:40;9.60;99.90
46440;DHT22;32138;50.966;6.968;2023-04-21T05:36:41;9.60;99.90
46440;DHT22;32138;50.966;6.968;2023-04-21T05:37:42;9.60;99.90
46440;DHT22;32138;50.966;6.968;2023-04-21T05:38:43;9.50;99.90
46440;DHT22;32138;50.966;6.968;2023-04-21T05:39:43;9.60;99.90
46440;DHT22;32138;50.966;6.968;2023-04-21T05:40:54;9.70;99.90
46440;DHT22;32138;50.966;6.968;2023-04-21T05:41:55;9.80;99.90
46440;DHT22;32138;50.966;6.968;2023-04-21T05:42:56;9.60;99.90
46440;DHT22;32138;50.966;6.968;2023-04-21T05:43:57;9.60;99.90
46440;DHT22;32138;50.966;6.968;2023-04-21T05:44:58;9.40;99.90
46440;DHT22;32138;50.966;6.968;2023-04-21T05:46:00;9.40;99.90
46440;DHT22;32138;50.966;6.968;2023-04-21T05:47:02;9.40;99.90
46440;DHT22;32138;50.966;6.968;2023-04-21T05:48:04;9.30;99.90
46440;DHT22;32138;50.966;6.968;2023-04-21T05:49:05;9.30;99.90
46440;DHT22;32138;50.966;6.968;2023-04-21T05:50:06;9.20;99.90
46440;DHT22;32138;50.966;6.968;2023-04-21T05:51:11;9.40;99.90
46440;DHT22;32138;50.966;6.968;2023-04-21T05:52:13;9.40;99.90
46440;DHT22;32138;50.966;6.968;2023-04-21T05:53:13;9.40;99.90
46440;DHT22;32138;50.966;6.968;2023-04-21T05:54:14;9.50;99.90
46440;DHT22;32138;50.966;6.968;2023-04-21T05:55:15;9.60;99.90
46440;DHT22;32138;50.966;6.968;2023-04-21T05:56:16;9.50;99.90
46440;DHT22;32138;50.966;6.968;2023-04-21T05:57:17;9.50;99.90
46440;DHT22;32138;50.966;6.968;2023-04-21T05:58:18;9.50;99.90
46440;DHT22;32138;50.966;6.968;2023-04-21T05:59:19;9.60;99.90
46440;DHT22;32138;50.966;6.968;2023-04-21T06:00:19;9.40;99.90
46440;DHT22;32138;50.966;6.968;2023-04-21T06:01:20;9.60;99.90
46440;DHT22;32138;50.966;6.968;2023-04-21T06:02:21;9.80;99.90
46440;DHT22;32138;50.966;6.968;2023-04-21T06:03:22;9.90;99.90
46440;DHT22;32138;50.966;6.968;2023-04-21T06:04:22;9.90;99.90
46440;DHT22;32138;50.966;6.968;2023-04-21T06:05:23;9.80;99.90
46440;DHT22;32138;50.966;6.968;2023-04-21T06:06:26;9.70;99.90
46440;DHT22;32138;50.966;6.968;2023-04-21T06:07:27;9.50;99.90
46440;DHT22;32138;50.966;6.968;2023-04-21T06:08:28;9.50;99.90
46440;DHT22;32138;50.966;6.968;2023-04-21T06:09:29;9.50;99.90
46440;DHT22;32138;50.966;6.968;2023-04-21T06:10:29;9.60;99.90
46440;DHT22;32138;50.966;6.968;2023-04-21T06:11:30;9.50;99.90
46440;DHT22;32138;50.966;6.968;2023-04-21T06:12:32;9.50;99.90
46440;DHT22;32138;50.966;6.968;2023-04-21T06:13:33;9.60;99.90
46440;DHT22;32138;50.966;6.968;2023-04-21T06:14:34;9.60;99.90
46440;DHT22;32138;50.966;6.968;2023-04-21T06:15:34;9.70;99.90
46440;DHT22;32138;50.966;6.968;2023-04-21T06:16:35;9.70;99.90
46440;DHT22;32138;50.966;6.968;2023-04-21T06:17:36;9.60;99.90
46440;DHT22;32138;50.966;6.968;2023-04-21T06:18:37;9.40;99.90
46440;DHT22;32138;50.966;6.968;2023-04-21T06:19:37;9.40;99.90
46440;DHT22;32138;50.966;6.968;2023-04-21T06:20:40;9.40;99.90
46440;DHT22;32138;50.966;6.968;2023-04-21T06:21:41;9.60;99.90
46440;DHT22;32138;50.966;6.968;2023-04-21T06:22:42;9.50;99.90
46440;DHT22;32138;50.966;6.968;2023-04-21T06:23:43;9.50;99.90
46440;DHT22;32138;50.966;6.968;2023-04-21T06:24:43;9.60;99.90
46440;DHT22;32138;50.966;6.968;2023-04-21T06:25:44;9.50;99.90
46440;DHT22;32138;50.966;6.968;2023-04-21T06:26:45;9.30;99.90
46440;DHT22;32138;50.966;6.968;2023-04-21T06:27:46;9.30;99.90
46440;DHT22;32138;50.966;6.968;2023-04-21T06:28:47;9.30;99.90
46440;DHT22;32138;50.966;6.968;2023-04-21T06:29:53;9.40;99.90
46440;DHT22;32138;50.966;6.968;2023-04-21T06:30:55;9.40;99.90